sensor_id;sensor_type;location;lat;lon;timestamp;pressure;altitude;pressure_sealevel;temperature
65316;BMP280;51920;53.952;10.292;2024-01-27T00:01:28;102169.19;;;5.69
65316;BMP280;51920;53.952;10.292;2024-01-27T00:03:55;102178.31;;;5.68
65316;BMP280;51920;53.952;10.292;2024-01-27T00:06:22;102177.38;;;5.63
65316;BMP280;51920;53.952;10.292;2024-01-27T00:08:49;102174.19;;;5.61
65316;BMP280;51920;53.952;10.292;2024-01-27T00:11:16;102172.69;;;5.55
65316;BMP280;51920;53.952;10.292;2024-01-27T00:13:42;102180.78;;;5.55
65316;BMP280;51920;53.952;10.292;2024-01-27T00:16:09;102181.78;;;5.59
65316;BMP280;51920;53.952;10.292;2024-01-27T00:18:36;102174.19;;;5.61
65316;BMP280;51920;53.952;10.292;2024-01-27T00:21:05;102191.28;;;5.65
65316;BMP280;51920;53.952;10.292;2024-01-27T00:23:32;102159.91;;;5.52
65316;BMP280;51920;53.952;10.292;2024-01-27T00:25:59;102187.34;;;5.63
65316;BMP280;51920;53.952;10.292;2024-01-27T00:28:25;102183.94;;;5.57
65316;BMP280;51920;53.952;10.292;2024-01-27T00:30:53;102195.25;;;5.68
65316;BMP280;51920;53.952;10.292;2024-01-27T00:33:21;102200.72;;;5.77
65316;BMP280;51920;53.952;10.292;2024-01-27T00:35:48;102199.31;;;5.79
65316;BMP280;51920;53.952;10.292;2024-01-27T00:38:15;102185.09;;;5.79
65316;BMP280;51920;53.952;10.292;2024-01-27T00:40:42;102197.41;;;5.80
65316;BMP280;51920;53.952;10.292;2024-01-27T00:43:08;102198.38;;;5.84
65316;BMP280;51920;53.952;10.292;2024-01-27T00:45:35;102182.31;;;5.70
65316;BMP280;51920;53.952;10.292;2024-01-27T00:48:02;102183.72;;;5.68
65316;BMP280;51920;53.952;10.292;2024-01-27T00:50:29;102205.78;;;5.78
65316;BMP280;51920;53.952;10.292;2024-01-27T00:52:56;102213.66;;;5.75
65316;BMP280;51920;53.952;10.292;2024-01-27T00:55:23;102213.84;;;5.78
65316;BMP280;51920;53.952;10.292;2024-01-27T00:58:01;102191.59;;;5.64
65316;BMP280;51920;53.952;10.292;2024-01-27T01:00:31;102214.22;;;5.63
65316;BMP280;51920;53.952;10.292;2024-01-27T01:03:01;102215.63;;;5.60
65316;BMP280;51920;53.952;10.292;2024-01-27T01:05:31;102225.09;;;5.58
65316;BMP280;51920;53.952;10.292;2024-01-27T01:10:45;102213.25;;;5.45
65316;BMP280;51920;53.952;10.292;2024-01-27T01:13:14;102220.50;;;5.58
65316;BMP280;51920;53.952;10.292;2024-01-27T01:15:41;102215.81;;;5.64
65316;BMP280;51920;53.952;10.292;2024-01-27T01:18:08;102222.47;;;5.66
65316;BMP280;51920;53.952;10.292;2024-01-27T01:20:34;102227.72;;;5.72
65316;BMP280;51920;53.952;10.292;2024-01-27T01:23:01;102218.06;;;5.71
65316;BMP280;51920;53.952;10.292;2024-01-27T01:25:28;102227.94;;;5.75
65316;BMP280;51920;53.952;10.292;2024-01-27T01:27:55;102227.09;;;5.75
65316;BMP280;51920;53.952;10.292;2024-01-27T01:30:21;102230.09;;;5.73
65316;BMP280;51920;53.952;10.292;2024-01-27T01:32:48;102228.81;;;5.71
65316;BMP280;51920;53.952;10.292;2024-01-27T01:35:17;102230.19;;;5.68
65316;BMP280;51920;53.952;10.292;2024-01-27T01:37:43;102249.53;;;5.70
65316;BMP280;51920;53.952;10.292;2024-01-27T01:40:10;102252.81;;;5.67
65316;BMP280;51920;53.952;10.292;2024-01-27T01:42:37;102261.28;;;5.74
65316;BMP280;51920;53.952;10.292;2024-01-27T01:45:05;102261.09;;;5.71
65316;BMP280;51920;53.952;10.292;2024-01-27T01:47:32;102257.81;;;5.74
65316;BMP280;51920;53.952;10.292;2024-01-27T01:50:00;102247.94;;;5.69
65316;BMP280;51920;53.952;10.292;2024-01-27T01:52:28;102250.81;;;5.73
65316;BMP280;51920;53.952;10.292;2024-01-27T01:54:55;102247.84;;;5.74
65316;BMP280;51920;53.952;10.292;2024-01-27T01:57:21;102250.91;;;5.68
65316;BMP280;51920;53.952;10.292;2024-01-27T01:59:48;102239.91;;;5.55
65316;BMP280;51920;53.952;10.292;2024-01-27T02:02:15;102248.38;;;5.62
65316;BMP280;51920;53.952;10.292;2024-01-27T02:04:43;102247.78;;;5.52
65316;BMP280;51920;53.952;10.292;2024-01-27T02:07:11;102259.22;;;5.57
65316;BMP280;51920;53.952;10.292;2024-01-27T02:09:38;102253.16;;;5.52
65316;BMP280;51920;53.952;10.292;2024-01-27T02:12:05;102249.38;;;5.53
65316;BMP280;51920;53.952;10.292;2024-01-27T02:14:32;102276.84;;;5.63
65316;BMP280;51920;53.952;10.292;2024-01-27T02:16:59;102275.97;;;5.54
65316;BMP280;51920;53.952;10.292;2024-01-27T02:19:26;102269.19;;;5.57
65316;BMP280;51920;53.952;10.292;2024-01-27T02:21:53;102287.13;;;5.61
65316;BMP280;51920;53.952;10.292;2024-01-27T02:24:19;102298.44;;;5.58
65316;BMP280;51920;53.952;10.292;2024-01-27T02:26:46;102302.59;;;5.64
65316;BMP280;51920;53.952;10.292;2024-01-27T02:29:13;102293.66;;;5.55
65316;BMP280;51920;53.952;10.292;2024-01-27T02:31:40;102301.03;;;5.77
65316;BMP280;51920;53.952;10.292;2024-01-27T02:34:07;102306.09;;;5.79
65316;BMP280;51920;53.952;10.292;2024-01-27T02:36:34;102305.94;;;5.84
65316;BMP280;51920;53.952;10.292;2024-01-27T02:39:01;102290.44;;;5.81
65316;BMP280;51920;53.952;10.292;2024-01-27T02:41:28;102284.59;;;5.79
65316;BMP280;51920;53.952;10.292;2024-01-27T02:43:54;102283.53;;;5.89
65316;BMP280;51920;53.952;10.292;2024-01-27T02:46:21;102292.28;;;5.94
65316;BMP280;51920;53.952;10.292;2024-01-27T02:48:48;102308.78;;;6.01
65316;BMP280;51920;53.952;10.292;2024-01-27T02:51:19;102311.47;;;6.01
65316;BMP280;51920;53.952;10.292;2024-01-27T02:53:47;102292.59;;;5.93
65316;BMP280;51920;53.952;10.292;2024-01-27T02:56:16;102303.50;;;5.96
65316;BMP280;51920;53.952;10.292;2024-01-27T02:58:43;102306.72;;;5.98
65316;BMP280;51920;53.952;10.292;2024-01-27T03:01:10;102308.28;;;5.99
65316;BMP280;51920;53.952;10.292;2024-01-27T03:03:37;102313.28;;;6.06
65316;BMP280;51920;53.952;10.292;2024-01-27T03:06:04;102321.63;;;6.04
65316;BMP280;51920;53.952;10.292;2024-01-27T03:08:31;102318.47;;;6.02
65316;BMP280;51920;53.952;10.292;2024-01-27T03:10:57;102324.03;;;6.06
65316;BMP280;51920;53.952;10.292;2024-01-27T03:13:24;102322.44;;;6.05
65316;BMP280;51920;53.952;10.292;2024-01-27T03:15:51;102332.28;;;6.10
65316;BMP280;51920;53.952;10.292;2024-01-27T03:18:18;102319.13;;;6.08
65316;BMP280;51920;53.952;10.292;2024-01-27T03:20:45;102318.34;;;6.08
65316;BMP280;51920;53.952;10.292;2024-01-27T03:23:12;102340.38;;;6.10
65316;BMP280;51920;53.952;10.292;2024-01-27T03:25:39;102350.50;;;6.13
65316;BMP280;51920;53.952;10.292;2024-01-27T03:28:06;102353.81;;;6.10
65316;BMP280;51920;53.952;10.292;2024-01-27T03:30:33;102353.81;;;6.10
65316;BMP280;51920;53.952;10.292;2024-01-27T03:33:00;102345.13;;;6.13
65316;BMP280;51920;53.952;10.292;2024-01-27T03:35:27;102348.91;;;6.12
65316;BMP280;51920;53.952;10.292;2024-01-27T03:37:54;102351.13;;;6.10
65316;BMP280;51920;53.952;10.292;2024-01-27T03:40:20;102354.72;;;6.05
65316;BMP280;51920;53.952;10.292;2024-01-27T03:42:47;102356.00;;;6.08
65316;BMP280;51920;53.952;10.292;2024-01-27T03:45:16;102368.03;;;6.10
65316;BMP280;51920;53.952;10.292;2024-01-27T03:47:43;102372.47;;;6.06
65316;BMP280;51920;53.952;10.292;2024-01-27T03:50:10;102372.16;;;6.08
65316;BMP280;51920;53.952;10.292;2024-01-27T03:52:37;102362.09;;;5.99
65316;BMP280;51920;53.952;10.292;2024-01-27T03:55:04;102375.53;;;5.99
65316;BMP280;51920;53.952;10.292;2024-01-27T03:57:32;102371.28;;;5.98
65316;BMP280;51920;53.952;10.292;2024-01-27T03:59:58;102376.88;;;6.11
65316;BMP280;51920;53.952;10.292;2024-01-27T04:02:26;102378.63;;;6.06
65316;BMP280;51920;53.952;10.292;2024-01-27T04:04:53;102373.84;;;6.03
65316;BMP280;51920;53.952;10.292;2024-01-27T04:07:19;102369.28;;;6.04
65316;BMP280;51920;53.952;10.292;2024-01-27T04:09:46;102373.84;;;6.03
65316;BMP280;51920;53.952;10.292;2024-01-27T04:12:13;102377.63;;;6.02
65316;BMP280;51920;53.952;10.292;2024-01-27T04:14:40;102384.09;;;6.01
65316;BMP280;51920;53.952;10.292;2024-01-27T04:17:07;102379.84;;;6.00
65316;BMP280;51920;53.952;10.292;2024-01-27T04:19:34;102382.03;;;5.98
65316;BMP280;51920;53.952;10.292;2024-01-27T04:22:00;102396.19;;;6.04
65316;BMP280;51920;53.952;10.292;2024-01-27T04:24:27;102392.78;;;5.98
65316;BMP280;51920;53.952;10.292;2024-01-27T04:26:54;102396.28;;;5.99
65316;BMP280;51920;53.952;10.292;2024-01-27T04:29:21;102410.22;;;6.01
65316;BMP280;51920;53.952;10.292;2024-01-27T04:31:47;102402.75;;;5.98
65316;BMP280;51920;53.952;10.292;2024-01-27T04:34:14;102397.19;;;5.94
65316;BMP280;51920;53.952;10.292;2024-01-27T04:36:41;102406.38;;;5.93
65316;BMP280;51920;53.952;10.292;2024-01-27T04:39:08;102403.19;;;5.91
65316;BMP280;51920;53.952;10.292;2024-01-27T04:41:41;102403.19;;;5.91
65316;BMP280;51920;53.952;10.292;2024-01-27T04:44:08;102396.56;;;5.97
65316;BMP280;51920;53.952;10.292;2024-01-27T04:46:35;102406.97;;;5.90
65316;BMP280;51920;53.952;10.292;2024-01-27T04:49:02;102391.81;;;5.80
65316;BMP280;51920;53.952;10.292;2024-01-27T04:51:31;102406.66;;;5.92
65316;BMP280;51920;53.952;10.292;2024-01-27T04:53:58;102399.19;;;5.89
65316;BMP280;51920;53.952;10.292;2024-01-27T04:56:24;102399.38;;;5.92
65316;BMP280;51920;53.952;10.292;2024-01-27T04:58:51;102416.63;;;5.91
65316;BMP280;51920;53.952;10.292;2024-01-27T05:01:18;102422.50;;;5.93
65316;BMP280;51920;53.952;10.292;2024-01-27T05:03:45;102402.47;;;5.85
65316;BMP280;51920;53.952;10.292;2024-01-27T05:06:12;102417.59;;;5.95
65316;BMP280;51920;53.952;10.292;2024-01-27T05:08:39;102421.06;;;5.96
65316;BMP280;51920;53.952;10.292;2024-01-27T05:11:07;102427.41;;;5.91
65316;BMP280;51920;53.952;10.292;2024-01-27T05:13:34;102427.91;;;5.93
65316;BMP280;51920;53.952;10.292;2024-01-27T05:16:01;102408.97;;;5.84
65316;BMP280;51920;53.952;10.292;2024-01-27T05:18:28;102419.91;;;5.88
65316;BMP280;51920;53.952;10.292;2024-01-27T05:20:55;102432.88;;;5.86
65316;BMP280;51920;53.952;10.292;2024-01-27T05:23:21;102434.66;;;5.77
65316;BMP280;51920;53.952;10.292;2024-01-27T05:25:50;102421.09;;;5.68
65316;BMP280;51920;53.952;10.292;2024-01-27T05:28:16;102424.91;;;5.67
65316;BMP280;51920;53.952;10.292;2024-01-27T05:30:44;102454.59;;;5.76
65316;BMP280;51920;53.952;10.292;2024-01-27T05:33:11;102439.13;;;5.68
65316;BMP280;51920;53.952;10.292;2024-01-27T05:35:38;102448.44;;;5.75
65316;BMP280;51920;53.952;10.292;2024-01-27T05:38:05;102453.66;;;5.80
65316;BMP280;51920;53.952;10.292;2024-01-27T05:40:31;102461.56;;;5.77
65316;BMP280;51920;53.952;10.292;2024-01-27T05:42:58;102447.81;;;5.78
65316;BMP280;51920;53.952;10.292;2024-01-27T05:45:25;102465.72;;;5.83
65316;BMP280;51920;53.952;10.292;2024-01-27T05:47:53;102473.91;;;5.78
65316;BMP280;51920;53.952;10.292;2024-01-27T05:50:20;102467.31;;;5.84
65316;BMP280;51920;53.952;10.292;2024-01-27T05:52:46;102464.53;;;5.89
65316;BMP280;51920;53.952;10.292;2024-01-27T05:55:13;102453.38;;;5.82
65316;BMP280;51920;53.952;10.292;2024-01-27T05:57:40;102472.41;;;5.85
65316;BMP280;51920;53.952;10.292;2024-01-27T06:00:07;102486.13;;;5.84
65316;BMP280;51920;53.952;10.292;2024-01-27T06:02:36;102489.84;;;5.88
65316;BMP280;51920;53.952;10.292;2024-01-27T06:05:06;102478.28;;;5.88
65316;BMP280;51920;53.952;10.292;2024-01-27T06:07:37;102493.41;;;5.83
65316;BMP280;51920;53.952;10.292;2024-01-27T06:10:08;102493.13;;;5.85
65316;BMP280;51920;53.952;10.292;2024-01-27T06:12:37;102486.03;;;5.89
65316;BMP280;51920;53.952;10.292;2024-01-27T06:15:04;102490.53;;;5.80
65316;BMP280;51920;53.952;10.292;2024-01-27T06:17:32;102487.44;;;5.86
65316;BMP280;51920;53.952;10.292;2024-01-27T06:19:59;102484.25;;;5.84
65316;BMP280;51920;53.952;10.292;2024-01-27T06:22:27;102488.03;;;5.83
65316;BMP280;51920;53.952;10.292;2024-01-27T06:24:53;102488.81;;;5.84
65316;BMP280;51920;53.952;10.292;2024-01-27T06:27:20;102482.66;;;5.70
65316;BMP280;51920;53.952;10.292;2024-01-27T06:29:47;102501.38;;;5.75
65316;BMP280;51920;53.952;10.292;2024-01-27T06:32:14;102495.59;;;5.68
65316;BMP280;51920;53.952;10.292;2024-01-27T06:34:42;102497.19;;;5.69
65316;BMP280;51920;53.952;10.292;2024-01-27T06:37:08;102503.38;;;5.69
65316;BMP280;51920;53.952;10.292;2024-01-27T06:39:35;102506.28;;;5.73
65316;BMP280;51920;53.952;10.292;2024-01-27T06:42:02;102503.38;;;5.69
65316;BMP280;51920;53.952;10.292;2024-01-27T06:44:29;102504.78;;;5.66
65316;BMP280;51920;53.952;10.292;2024-01-27T06:46:56;102520.91;;;5.66
65316;BMP280;51920;53.952;10.292;2024-01-27T06:49:22;102519.22;;;5.84
65316;BMP280;51920;53.952;10.292;2024-01-27T06:51:49;102529.88;;;6.68
65316;BMP280;51920;53.952;10.292;2024-01-27T06:54:16;102527.53;;;6.38
65316;BMP280;51920;53.952;10.292;2024-01-27T06:56:43;102522.22;;;5.97
65316;BMP280;51920;53.952;10.292;2024-01-27T06:59:10;102534.53;;;5.84
65316;BMP280;51920;53.952;10.292;2024-01-27T07:01:37;102534.78;;;5.74
65316;BMP280;51920;53.952;10.292;2024-01-27T07:04:03;102541.31;;;5.68
65316;BMP280;51920;53.952;10.292;2024-01-27T07:06:31;102547.19;;;5.70
65316;BMP280;51920;53.952;10.292;2024-01-27T07:08:58;102546.66;;;5.54
65316;BMP280;51920;53.952;10.292;2024-01-27T07:11:25;102545.09;;;5.34
65316;BMP280;51920;53.952;10.292;2024-01-27T07:13:54;102546.31;;;5.28
65316;BMP280;51920;53.952;10.292;2024-01-27T07:16:20;102546.22;;;5.33
65316;BMP280;51920;53.952;10.292;2024-01-27T07:18:47;102552.84;;;5.21
65316;BMP280;51920;53.952;10.292;2024-01-27T07:21:15;102544.69;;;5.26
65316;BMP280;51920;53.952;10.292;2024-01-27T07:23:43;102560.59;;;5.23
65316;BMP280;51920;53.952;10.292;2024-01-27T07:26:13;102565.97;;;5.23
65316;BMP280;51920;53.952;10.292;2024-01-27T07:28:40;102555.66;;;5.30
65316;BMP280;51920;53.952;10.292;2024-01-27T07:31:07;102563.00;;;5.24
65316;BMP280;51920;53.952;10.292;2024-01-27T07:33:34;102573.97;;;5.28
65316;BMP280;51920;53.952;10.292;2024-01-27T07:36:01;102567.59;;;5.24
65316;BMP280;51920;53.952;10.292;2024-01-27T07:38:28;102572.97;;;5.24
65316;BMP280;51920;53.952;10.292;2024-01-27T07:40:55;102582.31;;;5.26
65316;BMP280;51920;53.952;10.292;2024-01-27T07:43:24;102584.72;;;5.28
65316;BMP280;51920;53.952;10.292;2024-01-27T07:45:51;102581.31;;;5.22
65316;BMP280;51920;53.952;10.292;2024-01-27T07:48:19;102569.53;;;5.18
65316;BMP280;51920;53.952;10.292;2024-01-27T07:50:46;102579.56;;;5.32
65316;BMP280;51920;53.952;10.292;2024-01-27T07:53:15;102576.44;;;5.24
65316;BMP280;51920;53.952;10.292;2024-01-27T07:55:42;102573.75;;;5.24
65316;BMP280;51920;53.952;10.292;2024-01-27T07:58:09;102574.91;;;5.18
65316;BMP280;51920;53.952;10.292;2024-01-27T08:00:36;102575.38;;;5.25
65316;BMP280;51920;53.952;10.292;2024-01-27T08:03:03;102568.53;;;5.14
65316;BMP280;51920;53.952;10.292;2024-01-27T08:05:30;102595.09;;;5.35
65316;BMP280;51920;53.952;10.292;2024-01-27T08:07:57;102600.84;;;5.47
65316;BMP280;51920;53.952;10.292;2024-01-27T08:10:24;102610.84;;;5.41
65316;BMP280;51920;53.952;10.292;2024-01-27T08:12:50;102614.84;;;5.44
65316;BMP280;51920;53.952;10.292;2024-01-27T08:15:17;102612.06;;;5.49
65316;BMP280;51920;53.952;10.292;2024-01-27T08:17:44;102616.25;;;5.55
65316;BMP280;51920;53.952;10.292;2024-01-27T08:20:12;102611.59;;;5.47
65316;BMP280;51920;53.952;10.292;2024-01-27T08:22:39;102625.94;;;5.56
65316;BMP280;51920;53.952;10.292;2024-01-27T08:25:06;102606.28;;;5.42
65316;BMP280;51920;53.952;10.292;2024-01-27T08:27:33;102624.22;;;5.46
65316;BMP280;51920;53.952;10.292;2024-01-27T08:30:00;102624.84;;;5.57
65316;BMP280;51920;53.952;10.292;2024-01-27T08:32:28;102616.09;;;5.65
65316;BMP280;51920;53.952;10.292;2024-01-27T08:34:55;102623.75;;;5.58
65316;BMP280;51920;53.952;10.292;2024-01-27T08:37:21;102626.78;;;5.52
65316;BMP280;51920;53.952;10.292;2024-01-27T08:39:48;102637.31;;;5.67
65316;BMP280;51920;53.952;10.292;2024-01-27T08:42:17;102641.56;;;5.54
65316;BMP280;51920;53.952;10.292;2024-01-27T08:44:44;102641.16;;;5.47
65316;BMP280;51920;53.952;10.292;2024-01-27T08:47:11;102639.72;;;5.50
65316;BMP280;51920;53.952;10.292;2024-01-27T08:49:38;102646.53;;;5.47
65316;BMP280;51920;53.952;10.292;2024-01-27T08:52:05;102644.31;;;5.49
65316;BMP280;51920;53.952;10.292;2024-01-27T08:54:31;102651.69;;;5.43
65316;BMP280;51920;53.952;10.292;2024-01-27T08:56:58;102648.03;;;5.53
65316;BMP280;51920;53.952;10.292;2024-01-27T08:59:25;102659.28;;;5.55
65316;BMP280;51920;53.952;10.292;2024-01-27T09:01:52;102664.38;;;5.57
65316;BMP280;51920;53.952;10.292;2024-01-27T09:04:19;102658.50;;;5.55
65316;BMP280;51920;53.952;10.292;2024-01-27T09:06:45;102659.50;;;5.59
65316;BMP280;51920;53.952;10.292;2024-01-27T09:09:12;102667.19;;;5.65
65316;BMP280;51920;53.952;10.292;2024-01-27T09:11:40;102663.50;;;5.61
65316;BMP280;51920;53.952;10.292;2024-01-27T09:14:07;102667.69;;;5.68
65316;BMP280;51920;53.952;10.292;2024-01-27T09:16:34;102671.50;;;5.80
65316;BMP280;51920;53.952;10.292;2024-01-27T09:19:01;102665.72;;;5.73
65316;BMP280;51920;53.952;10.292;2024-01-27T09:21:28;102667.72;;;5.81
65316;BMP280;51920;53.952;10.292;2024-01-27T09:23:58;102675.81;;;5.81
65316;BMP280;51920;53.952;10.292;2024-01-27T09:26:24;102670.56;;;5.90
65316;BMP280;51920;53.952;10.292;2024-01-27T09:28:51;102668.75;;;5.85
65316;BMP280;51920;53.952;10.292;2024-01-27T09:31:24;102664.19;;;5.86
65316;BMP280;51920;53.952;10.292;2024-01-27T09:33:52;102662.25;;;6.05
65316;BMP280;51920;53.952;10.292;2024-01-27T09:36:20;102674.00;;;6.10
65316;BMP280;51920;53.952;10.292;2024-01-27T09:38:47;102671.72;;;6.17
65316;BMP280;51920;53.952;10.292;2024-01-27T09:41:14;102680.78;;;6.21
65316;BMP280;51920;53.952;10.292;2024-01-27T09:43:43;102690.16;;;6.65
65316;BMP280;51920;53.952;10.292;2024-01-27T09:46:16;102676.41;;;6.53
65316;BMP280;51920;53.952;10.292;2024-01-27T09:48:44;102684.03;;;6.51
65316;BMP280;51920;53.952;10.292;2024-01-27T09:51:11;102685.63;;;6.52
65316;BMP280;51920;53.952;10.292;2024-01-27T09:53:40;102698.56;;;6.50
65316;BMP280;51920;53.952;10.292;2024-01-27T09:56:07;102673.63;;;6.44
65316;BMP280;51920;53.952;10.292;2024-01-27T09:58:34;102687.31;;;6.61
65316;BMP280;51920;53.952;10.292;2024-01-27T10:01:02;102696.47;;;6.46
65316;BMP280;51920;53.952;10.292;2024-01-27T10:03:29;102689.88;;;6.53
65316;BMP280;51920;53.952;10.292;2024-01-27T10:05:57;102702.47;;;6.71
65316;BMP280;51920;53.952;10.292;2024-01-27T10:08:24;102704.84;;;6.86
65316;BMP280;51920;53.952;10.292;2024-01-27T10:10:55;102699.69;;;7.26
65316;BMP280;51920;53.952;10.292;2024-01-27T10:13:25;102695.16;;;7.36
65316;BMP280;51920;53.952;10.292;2024-01-27T10:16:05;102721.75;;;7.96
65316;BMP280;51920;53.952;10.292;2024-01-27T10:18:33;102711.13;;;8.00
65316;BMP280;51920;53.952;10.292;2024-01-27T10:21:05;102722.31;;;8.16
65316;BMP280;51920;53.952;10.292;2024-01-27T10:23:39;102726.63;;;7.85
65316;BMP280;51920;53.952;10.292;2024-01-27T10:26:09;102730.97;;;8.04
65316;BMP280;51920;53.952;10.292;2024-01-27T10:28:36;102736.97;;;7.92
65316;BMP280;51920;53.952;10.292;2024-01-27T10:31:12;102733.50;;;8.00
65316;BMP280;51920;53.952;10.292;2024-01-27T10:33:39;102733.09;;;8.07
65316;BMP280;51920;53.952;10.292;2024-01-27T10:36:06;102729.84;;;7.96
65316;BMP280;51920;53.952;10.292;2024-01-27T10:38:37;102736.66;;;8.25
65316;BMP280;51920;53.952;10.292;2024-01-27T10:41:09;102745.50;;;8.48
65316;BMP280;51920;53.952;10.292;2024-01-27T10:43:39;102733.34;;;8.68
65316;BMP280;51920;53.952;10.292;2024-01-27T10:46:08;102735.34;;;8.54
65316;BMP280;51920;53.952;10.292;2024-01-27T10:48:35;102721.34;;;8.12
65316;BMP280;51920;53.952;10.292;2024-01-27T10:51:07;102726.66;;;7.72
65316;BMP280;51920;53.952;10.292;2024-01-27T10:53:35;102723.97;;;7.72
65316;BMP280;51920;53.952;10.292;2024-01-27T10:56:04;102747.66;;;7.75
65316;BMP280;51920;53.952;10.292;2024-01-27T10:58:36;102737.47;;;7.72
65316;BMP280;51920;53.952;10.292;2024-01-27T11:01:09;102730.88;;;7.64
65316;BMP280;51920;53.952;10.292;2024-01-27T11:03:38;102727.22;;;7.82
65316;BMP280;51920;53.952;10.292;2024-01-27T11:06:06;102716.44;;;8.14
65316;BMP280;51920;53.952;10.292;2024-01-27T11:08:34;102725.19;;;7.88
65316;BMP280;51920;53.952;10.292;2024-01-27T11:11:06;102724.19;;;8.46
65316;BMP280;51920;53.952;10.292;2024-01-27T11:13:33;102727.78;;;8.33
65316;BMP280;51920;53.952;10.292;2024-01-27T11:16:17;102734.44;;;8.67
65316;BMP280;51920;53.952;10.292;2024-01-27T11:18:45;102725.22;;;8.68
65316;BMP280;51920;53.952;10.292;2024-01-27T11:21:14;102732.59;;;8.36
65316;BMP280;51920;53.952;10.292;2024-01-27T11:23:50;102718.28;;;8.36
65316;BMP280;51920;53.952;10.292;2024-01-27T11:26:20;102726.16;;;8.72
65316;BMP280;51920;53.952;10.292;2024-01-27T11:28:50;102737.44;;;8.17
65316;BMP280;51920;53.952;10.292;2024-01-27T11:31:18;102740.56;;;8.99
65316;BMP280;51920;53.952;10.292;2024-01-27T11:33:50;102725.63;;;8.53
65316;BMP280;51920;53.952;10.292;2024-01-27T11:36:21;102741.25;;;8.56
65316;BMP280;51920;53.952;10.292;2024-01-27T11:38:51;102731.75;;;8.27
65316;BMP280;51920;53.952;10.292;2024-01-27T11:41:28;102744.31;;;8.32
65316;BMP280;51920;53.952;10.292;2024-01-27T11:43:56;102750.69;;;8.04
65316;BMP280;51920;53.952;10.292;2024-01-27T11:46:23;102753.50;;;7.99
65316;BMP280;51920;53.952;10.292;2024-01-27T11:48:50;102752.63;;;7.81
65316;BMP280;51920;53.952;10.292;2024-01-27T11:51:17;102749.22;;;7.53
65316;BMP280;51920;53.952;10.292;2024-01-27T11:53:45;102758.09;;;7.54
65316;BMP280;51920;53.952;10.292;2024-01-27T11:56:13;102760.88;;;7.62
65316;BMP280;51920;53.952;10.292;2024-01-27T11:58:46;102776.72;;;7.78
65316;BMP280;51920;53.952;10.292;2024-01-27T12:01:14;102777.69;;;7.82
65316;BMP280;51920;53.952;10.292;2024-01-27T12:03:41;102787.59;;;7.86
65316;BMP280;51920;53.952;10.292;2024-01-27T12:06:10;102788.53;;;7.91
65316;BMP280;51920;53.952;10.292;2024-01-27T12:08:40;102790.34;;;7.95
65316;BMP280;51920;53.952;10.292;2024-01-27T12:11:13;102786.69;;;7.77
65316;BMP280;51920;53.952;10.292;2024-01-27T12:13:41;102780.63;;;7.49
65316;BMP280;51920;53.952;10.292;2024-01-27T12:16:08;102788.41;;;7.73
65316;BMP280;51920;53.952;10.292;2024-01-27T12:18:35;102783.56;;;7.61
65316;BMP280;51920;53.952;10.292;2024-01-27T12:21:03;102776.56;;;7.24
65316;BMP280;51920;53.952;10.292;2024-01-27T12:23:32;102765.56;;;7.20
65316;BMP280;51920;53.952;10.292;2024-01-27T12:25:59;102765.19;;;7.13
65316;BMP280;51920;53.952;10.292;2024-01-27T12:28:27;102754.22;;;7.10
65316;BMP280;51920;53.952;10.292;2024-01-27T12:30:53;102770.25;;;7.28
65316;BMP280;51920;53.952;10.292;2024-01-27T12:33:23;102766.53;;;7.38
65316;BMP280;51920;53.952;10.292;2024-01-27T12:35:53;102756.56;;;7.39
65316;BMP280;51920;53.952;10.292;2024-01-27T12:38:22;102769.38;;;7.56
65316;BMP280;51920;53.952;10.292;2024-01-27T12:41:16;102760.50;;;7.55
65316;BMP280;51920;53.952;10.292;2024-01-27T12:43:43;102763.31;;;7.50
65316;BMP280;51920;53.952;10.292;2024-01-27T12:46:10;102760.97;;;7.57
65316;BMP280;51920;53.952;10.292;2024-01-27T12:48:38;102761.19;;;7.61
65316;BMP280;51920;53.952;10.292;2024-01-27T12:51:05;102763.69;;;7.57
65316;BMP280;51920;53.952;10.292;2024-01-27T12:53:32;102751.47;;;7.37
65316;BMP280;51920;53.952;10.292;2024-01-27T12:56:08;102756.34;;;7.49
65316;BMP280;51920;53.952;10.292;2024-01-27T12:58:35;102763.53;;;7.40
65316;BMP280;51920;53.952;10.292;2024-01-27T13:01:02;102770.63;;;7.50
65316;BMP280;51920;53.952;10.292;2024-01-27T13:03:29;102762.09;;;7.56
65316;BMP280;51920;53.952;10.292;2024-01-27T13:05:56;102762.09;;;7.56
65316;BMP280;51920;53.952;10.292;2024-01-27T13:08:24;102762.84;;;7.71
65316;BMP280;51920;53.952;10.292;2024-01-27T13:10:52;102764.19;;;7.59
65316;BMP280;51920;53.952;10.292;2024-01-27T13:13:19;102768.00;;;7.58
65316;BMP280;51920;53.952;10.292;2024-01-27T13:15:46;102776.94;;;7.67
65316;BMP280;51920;53.952;10.292;2024-01-27T13:18:13;102772.13;;;7.64
65316;BMP280;51920;53.952;10.292;2024-01-27T13:20:40;102768.50;;;7.60
65316;BMP280;51920;53.952;10.292;2024-01-27T13:23:07;102778.03;;;7.66
65316;BMP280;51920;53.952;10.292;2024-01-27T13:25:34;102771.06;;;7.65
65316;BMP280;51920;53.952;10.292;2024-01-27T13:28:01;102779.44;;;7.64
65316;BMP280;51920;53.952;10.292;2024-01-27T13:30:29;102779.63;;;7.67
65316;BMP280;51920;53.952;10.292;2024-01-27T13:32:56;102783.06;;;7.59
65316;BMP280;51920;53.952;10.292;2024-01-27T13:35:23;102780.09;;;7.47
65316;BMP280;51920;53.952;10.292;2024-01-27T13:37:50;102778.50;;;7.46
65316;BMP280;51920;53.952;10.292;2024-01-27T13:40:17;102780.09;;;7.47
65316;BMP280;51920;53.952;10.292;2024-01-27T13:42:44;102772.69;;;7.53
65316;BMP280;51920;53.952;10.292;2024-01-27T13:45:11;102782.69;;;7.52
65316;BMP280;51920;53.952;10.292;2024-01-27T13:47:38;102789.31;;;7.46
65316;BMP280;51920;53.952;10.292;2024-01-27T13:50:06;102792.28;;;7.58
65316;BMP280;51920;53.952;10.292;2024-01-27T13:52:33;102797.94;;;7.71
65316;BMP280;51920;53.952;10.292;2024-01-27T13:55:00;102785.84;;;7.54
65316;BMP280;51920;53.952;10.292;2024-01-27T13:57:33;102785.03;;;7.67
65316;BMP280;51920;53.952;10.292;2024-01-27T13:59:59;102787.06;;;7.62
65316;BMP280;51920;53.952;10.292;2024-01-27T14:02:27;102785.25;;;7.57